Time;durP1;ratioP1;P1;durP2;ratioP2;P2;SDS_P1;SDS_P2;PMS_P1;PMS_P2;Temp;Humidity;BMP_temperature;BMP_pressure;BME280_temperature;BME280_humidity;BME280_pressure;Samples;Min_cycle;Max_cycle;Signal;HPM_P1;HPM_P2
2021/06/03 00:00:55;;;;;;;10.88;5.55;;;435.50;1510.40;;;;;;5071502;28;20100;-68
2021/06/03 00:03:21;;;;;;;9.85;5.60;;;435.50;1510.40;;;;;;5071629;28;20440;-68
2021/06/03 00:05:52;;;;;;;13.55;5.43;;;435.50;1510.40;;;;;;5071850;28;20056;-65
2021/06/03 00:08:19;;;;;;;8.45;5.28;;;435.40;1510.40;;;;;;5071413;28;20027;-68
2021/06/03 00:10:50;;;;;;;8.00;5.47;;;435.40;1510.40;;;;;;5071714;28;20465;-67
2021/06/03 00:13:18;;;;;;;10.15;5.20;;;435.40;1510.40;;;;;;5071590;28;20017;-68
2021/06/03 00:15:44;;;;;;;10.98;5.40;;;435.40;1536.00;;;;;;5075658;28;20498;-67
2021/06/03 00:18:11;;;;;;;8.75;5.43;;;435.40;1510.40;;;;;;5075215;28;20385;-63
2021/06/03 00:20:38;;;;;;;8.30;5.22;;;435.40;1510.40;;;;;;5075204;28;20389;-62
2021/06/03 00:23:04;;;;;;;8.45;5.25;;;435.30;1536.00;;;;;;5075173;28;20024;-66
2021/06/03 00:25:31;;;;;;;9.18;5.22;;;435.40;1510.40;;;;;;5075164;28;20021;-63
2021/06/03 00:27:57;;;;;;;11.35;5.50;;;435.40;1510.40;;;;;;5073546;28;20024;-68
2021/06/03 00:30:23;;;;;;;10.35;5.43;;;435.30;1536.00;;;;;;5074324;28;20027;-57
2021/06/03 00:32:49;;;;;;;9.43;5.47;;;435.20;1510.40;;;;;;5072776;28;20031;-66
2021/06/03 00:35:15;;;;;;;6.72;5.15;;;435.20;1536.00;;;;;;5074232;28;20029;-68
2021/06/03 00:37:41;;;;;;;6.57;5.63;;;435.20;1536.00;;;;;;5074491;28;20020;-63
2021/06/03 00:40:11;;;;;;;8.50;5.03;;;435.20;1536.00;;;;;;5073731;28;20103;-66
2021/06/03 00:42:38;;;;;;;8.73;5.53;;;435.20;1561.60;;;;;;5074838;28;20020;-68
2021/06/03 00:45:08;;;;;;;12.27;5.38;;;410.40;1612.80;;;;;;5074662;28;20064;-66
2021/06/03 00:47:34;;;;;;;10.50;5.50;;;410.30;1612.80;;;;;;5075029;28;20053;-67
2021/06/03 00:50:00;;;;;;;9.38;5.60;;;410.20;1612.80;;;;;;5074537;28;20036;-67
2021/06/03 00:52:26;;;;;;;10.85;6.05;;;410.10;1612.80;;;;;;5074794;28;20055;-67
2021/06/03 00:54:52;;;;;;;9.23;5.45;;;410.00;1638.40;;;;;;5074939;28;20025;-68
2021/06/03 00:57:18;;;;;;;8.35;5.43;;;410.00;1612.80;;;;;;5074063;28;20102;-67
2021/06/03 00:59:44;;;;;;;8.40;5.85;;;409.90;1638.40;;;;;;5074692;28;20024;-66
2021/06/03 01:02:09;;;;;;;9.07;5.85;;;410.00;1612.80;;;;;;5074220;28;20471;-66
2021/06/03 01:04:36;;;;;;;9.02;5.50;;;410.00;1612.80;;;;;;5074767;28;20020;-67
2021/06/03 01:07:03;;;;;;;10.60;5.80;;;410.00;1612.80;;;;;;5074295;28;20469;-67
2021/06/03 01:09:37;;;;;;;10.32;6.10;;;410.00;1612.80;;;;;;5074428;28;20539;-67
2021/06/03 01:12:09;;;;;;;12.98;5.95;;;410.00;1612.80;;;;;;5074560;28;20104;-66
2021/06/03 01:14:40;;;;;;;11.50;5.88;;;410.00;1612.80;;;;;;5074210;28;20024;-67
2021/06/03 01:17:09;;;;;;;10.32;5.45;;;409.90;1612.80;;;;;;5074325;28;20063;-55
2021/06/03 01:19:39;;;;;;;10.45;6.15;;;409.80;1664.00;;;;;;5074196;28;20060;-54
2021/06/03 01:22:06;;;;;;;12.40;6.50;;;;;;;;;;5074373;28;20017;-55
2021/06/03 01:24:34;;;;;;;9.50;5.70;;;;;;;;;;5073496;28;20477;-54
2021/06/03 01:27:02;;;;;;;9.75;5.80;;;;;;;;;;5073666;28;20021;-55
2021/06/03 01:29:30;;;;;;;10.30;5.32;;;;;;;;;;5073705;28;20068;-55
2021/06/03 01:31:57;;;;;;;9.43;6.25;;;;;;;;;;5073869;28;20122;-54
2021/06/03 01:34:26;;;;;;;10.13;5.85;;;;;;;;;;5073808;28;20027;-54
2021/06/03 01:36:53;;;;;;;7.80;5.45;;;;;;;;;;5073989;28;20035;-54
2021/06/03 01:39:20;;;;;;;11.00;5.85;;;410.00;1638.40;;;;;;5073869;28;20048;-54
2021/06/03 01:41:46;;;;;;;7.80;5.85;;;409.70;1664.00;;;;;;5073731;28;20366;-55
2021/06/03 01:44:13;;;;;;;8.77;6.13;;;409.70;1664.00;;;;;;5073943;28;20448;-55
2021/06/03 01:46:39;;;;;;;8.75;6.20;;;409.70;1689.60;;;;;;5073367;28;20473;-54
2021/06/03 01:49:05;;;;;;;10.60;6.28;;;409.80;1664.00;;;;;;5073680;28;20137;-55
2021/06/03 01:51:32;;;;;;;10.18;5.97;;;409.80;1689.60;;;;;;5072209;28;20473;-56
2021/06/03 01:53:58;;;;;;;10.57;6.53;;;;;;;;;;5073165;28;20128;-54
2021/06/03 01:56:25;;;;;;;11.07;6.05;;;;;;;;;;5073377;28;20083;-66
2021/06/03 01:58:52;;;;;;;10.40;6.20;;;;;;;;;;5074532;28;20489;-66
2021/06/03 02:01:19;;;;;;;11.20;6.32;;;;;;;;;;5074699;28;20032;-55
2021/06/03 02:03:46;;;;;;;10.25;6.38;;;;;;;;;;5074673;28;20027;-55
2021/06/03 02:06:12;;;;;;;10.88;6.07;;;409.70;1689.60;;;;;;5074750;28;20033;-54
2021/06/03 02:08:38;;;;;;;9.50;6.25;;;384.80;1664.00;;;;;;5074643;28;20044;-55
2021/06/03 02:11:05;;;;;;;8.50;6.30;;;384.50;1715.20;;;;;;5074438;28;20091;-54
2021/06/03 02:13:43;;;;;;;8.77;6.10;;;384.70;1689.60;;;;;;5074922;28;20402;-54
2021/06/03 02:16:17;;;;;;;10.65;7.00;;;384.70;1689.60;;;;;;5074558;28;20054;-55
2021/06/03 02:18:56;;;;;;;10.48;6.72;;;384.50;1689.60;;;;;;5074285;28;20429;-55
2021/06/03 02:21:23;;;;;;;11.50;6.07;;;384.60;1689.60;;;;;;5074446;28;20020;-54
2021/06/03 02:23:51;;;;;;;8.77;6.55;;;384.60;1689.60;;;;;;5074136;28;20416;-54
2021/06/03 02:26:17;;;;;;;8.93;6.57;;;384.60;1689.60;;;;;;5074449;28;20024;-54
2021/06/03 02:28:45;;;;;;;8.95;6.80;;;384.50;1689.60;;;;;;5073975;28;20036;-68
2021/06/03 02:31:11;;;;;;;10.45;6.78;;;384.50;1689.60;;;;;;5074031;28;20043;-61
2021/06/03 02:33:37;;;;;;;8.85;6.82;;;384.60;1689.60;;;;;;5073942;28;20481;-55
2021/06/03 02:36:04;;;;;;;10.30;7.68;;;384.60;1689.60;;;;;;5073705;28;20040;-67
2021/06/03 02:38:32;;;;;;;16.90;7.13;;;384.50;1689.60;;;;;;5074036;28;20028;-66
2021/06/03 02:41:02;;;;;;;11.93;7.25;;;384.60;1689.60;;;;;;5074247;28;20107;-67
2021/06/03 02:43:28;;;;;;;8.95;6.47;;;384.60;1689.60;;;;;;5073715;28;20477;-66
2021/06/03 02:45:54;;;;;;;10.77;7.32;;;384.70;1664.00;;;;;;5073645;28;20078;-55
2021/06/03 02:48:21;;;;;;;12.63;7.15;;;384.70;1664.00;;;;;;5073733;28;20028;-54
2021/06/03 02:50:47;;;;;;;10.30;7.70;;;384.40;1689.60;;;;;;5073730;28;20032;-55
2021/06/03 02:53:13;;;;;;;11.15;7.70;;;384.20;1715.20;;;;;;5073664;28;20060;-55
2021/06/03 02:55:40;;;;;;;13.88;7.95;;;384.20;1715.20;;;;;;5073678;28;20021;-54
2021/06/03 02:58:07;;;;;;;15.00;9.15;;;384.20;1715.20;;;;;;5073386;28;20123;-67
2021/06/03 03:00:35;;;;;;;20.65;9.68;;;384.30;1689.60;;;;;;5073947;28;20083;-61
2021/06/03 03:03:04;;;;;;;18.35;8.93;;;384.40;1689.60;;;;;;5072294;28;20025;-67
2021/06/03 03:05:29;;;;;;;13.73;8.43;;;384.40;1664.00;;;;;;5074030;28;20078;-55
2021/06/03 03:07:55;;;;;;;13.82;9.27;;;384.50;1664.00;;;;;;5073481;28;20021;-54
2021/06/03 03:10:28;;;;;;;13.52;9.30;;;384.40;1664.00;;;;;;5073481;28;20032;-63
2021/06/03 03:12:55;;;;;;;20.50;9.43;;;384.40;1689.60;;;;;;5073546;28;20055;-63
2021/06/03 03:15:21;;;;;;;15.70;9.07;;;384.40;1664.00;;;;;;5073673;28;20081;-54
2021/06/03 03:17:47;;;;;;;15.25;8.23;;;384.50;1664.00;;;;;;5073426;28;20028;-55
2021/06/03 03:20:16;;;;;;;11.52;8.18;;;384.50;1689.60;;;;;;5073389;28;20516;-67
2021/06/03 03:22:42;;;;;;;16.52;8.85;;;384.50;1664.00;;;;;;5073277;28;20085;-54
2021/06/03 03:25:10;;;;;;;24.17;10.40;;;384.60;1664.00;;;;;;5073674;28;20119;-55
2021/06/03 03:27:37;;;;;;;23.40;9.05;;;384.50;1664.00;;;;;;5073274;28;20025;-55
2021/06/03 03:30:04;;;;;;;12.48;8.73;;;384.50;1689.60;;;;;;5073218;28;20039;-67
2021/06/03 03:32:30;;;;;;;16.55;9.60;;;384.40;1664.00;;;;;;5073216;28;20028;-54
2021/06/03 03:34:56;;;;;;;17.75;9.38;;;384.30;1689.60;;;;;;5073288;28;20033;-55
2021/06/03 03:37:22;;;;;;;11.45;9.00;;;384.30;1664.00;;;;;;5073536;28;20029;-54
2021/06/03 03:39:48;;;;;;;18.10;9.73;;;384.40;1664.00;;;;;;5073181;28;20051;-65
2021/06/03 03:42:14;;;;;;;18.15;10.20;;;384.40;1664.00;;;;;;5073182;28;20033;-54
2021/06/03 03:44:39;;;;;;;15.98;9.73;;;384.50;1664.00;;;;;;5073151;28;20032;-67
2021/06/03 03:47:07;;;;;;;21.25;10.93;;;384.40;1715.20;;;;;;5073153;28;20032;-55
2021/06/03 03:49:33;;;;;;;16.63;10.57;;;384.50;1689.60;;;;;;5075818;28;20040;-54
2021/06/03 03:52:00;;;;;;;23.98;12.07;;;384.50;1689.60;;;;;;5077189;28;20028;-67
2021/06/03 03:54:26;;;;;;;21.85;11.20;;;384.60;1689.60;;;;;;5077109;28;20021;-54
2021/06/03 03:56:52;;;;;;;18.08;10.68;;;384.60;1638.40;;;;;;5076986;28;20036;-54
2021/06/03 03:59:18;;;;;;;20.25;10.93;;;384.60;1638.40;;;;;;5075698;28;20408;-54
2021/06/03 04:01:46;;;;;;;17.20;10.48;;;384.70;1664.00;;;;;;5077499;28;20029;-54
2021/06/03 04:04:12;;;;;;;18.95;10.40;;;384.70;1664.00;;;;;;5077121;28;20055;-54
2021/06/03 04:06:39;;;;;;;14.60;9.70;;;384.80;1664.00;;;;;;5075567;28;20056;-55
2021/06/03 04:09:06;;;;;;;15.30;9.77;;;384.80;1664.00;;;;;;5076705;28;20036;-54
2021/06/03 04:11:31;;;;;;;16.20;9.85;;;384.90;1664.00;;;;;;5076919;28;20038;-66
2021/06/03 04:13:57;;;;;;;12.70;9.18;;;409.60;1664.00;;;;;;5076963;28;20028;-54
2021/06/03 04:16:23;;;;;;;11.57;8.32;;;409.60;1664.00;;;;;;5076890;28;20466;-54
2021/06/03 04:18:49;;;;;;;13.23;8.63;;;409.70;1664.00;;;;;;5076618;28;20112;-54
2021/06/03 04:21:15;;;;;;;11.20;8.88;;;409.70;1664.00;;;;;;5076549;28;20029;-54
2021/06/03 04:23:41;;;;;;;10.18;8.15;;;409.70;1664.00;;;;;;5076482;28;20488;-67
2021/06/03 04:26:07;;;;;;;14.77;9.05;;;409.80;1664.00;;;;;;5076467;28;20024;-54
2021/06/03 04:28:33;;;;;;;15.15;8.88;;;409.90;1664.00;;;;;;5076590;28;20094;-54
2021/06/03 04:31:00;;;;;;;14.30;7.95;;;409.90;1638.40;;;;;;5076386;28;20033;-68
2021/06/03 04:33:25;;;;;;;12.55;7.72;;;410.00;1664.00;;;;;;5076280;28;20032;-55
2021/06/03 04:35:52;;;;;;;13.65;7.32;;;410.00;1638.40;;;;;;5076285;28;20025;-54
2021/06/03 04:38:17;;;;;;;12.30;7.25;;;410.00;1638.40;;;;;;5076187;28;20043;-54
2021/06/03 04:40:43;;;;;;;8.25;6.82;;;410.10;1638.40;;;;;;5076121;28;20028;-54
2021/06/03 04:43:09;;;;;;;12.32;7.07;;;410.20;1638.40;;;;;;5076126;28;20024;-54
2021/06/03 04:45:38;;;;;;;11.50;6.35;;;410.30;1638.40;;;;;;5076018;28;20134;-67
2021/06/03 04:48:08;;;;;;;17.00;6.65;;;410.30;1638.40;;;;;;5076240;28;20033;-54
2021/06/03 04:50:36;;;;;;;12.30;6.57;;;410.40;1612.80;;;;;;5076037;28;20123;-67
2021/06/03 04:53:02;;;;;;;12.52;6.47;;;410.40;1612.80;;;;;;5073689;28;20025;-54
2021/06/03 04:55:29;;;;;;;11.85;6.25;;;410.50;1587.20;;;;;;5075119;28;20115;-55
2021/06/03 04:57:56;;;;;;;12.32;6.18;;;410.50;1587.20;;;;;;5075651;28;20129;-54
2021/06/03 05:00:28;;;;;;;19.52;6.85;;;435.20;1587.20;;;;;;5074490;28;20025;-55
2021/06/03 05:02:55;;;;;;;11.32;5.85;;;435.20;1587.20;;;;;;5075784;28;20480;-55
2021/06/03 05:05:21;;;;;;;10.70;6.13;;;435.30;1587.20;;;;;;5074353;28;20070;-55
2021/06/03 05:07:48;;;;;;;10.93;5.50;;;435.30;1587.20;;;;;;5075687;28;20359;-54
2021/06/03 05:10:15;;;;;;;10.88;5.65;;;435.30;1587.20;;;;;;5075657;28;20033;-55
2021/06/03 05:12:42;;;;;;;6.63;4.93;;;435.30;1587.20;;;;;;5075626;28;20044;-55
2021/06/03 05:15:09;;;;;;;12.88;5.57;;;435.40;1561.60;;;;;;5075875;28;20020;-55
2021/06/03 05:17:35;;;;;;;13.57;4.55;;;435.40;1561.60;;;;;;5075354;28;20056;-54
2021/06/03 05:20:03;;;;;;;6.22;4.60;;;435.50;1561.60;;;;;;5075492;28;20102;-54
2021/06/03 05:22:29;;;;;;;7.63;4.57;;;435.50;1561.60;;;;;;5074594;28;20025;-55
2021/06/03 05:24:54;;;;;;;7.93;5.30;;;435.50;1561.60;;;;;;5073326;28;20123;-55
2021/06/03 05:27:20;;;;;;;16.80;4.85;;;435.60;1561.60;;;;;;5075033;28;20068;-67
2021/06/03 05:29:46;;;;;;;13.60;4.30;;;435.60;1536.00;;;;;;5074699;28;20025;-65
2021/06/03 05:32:12;;;;;;;9.07;4.82;;;435.70;1536.00;;;;;;5074712;28;20029;-68
2021/06/03 05:34:38;;;;;;;13.38;4.10;;;435.70;1536.00;;;;;;5074692;28;20032;-56
2021/06/03 05:37:04;;;;;;;6.03;3.83;;;435.80;1536.00;;;;;;5074550;28;20021;-68
2021/06/03 05:39:30;;;;;;;8.18;4.38;;;435.70;1536.00;;;;;;5074534;28;20086;-68
2021/06/03 05:41:56;;;;;;;11.90;4.05;;;435.80;1536.00;;;;;;5074512;28;20092;-67
2021/06/03 05:44:22;;;;;;;12.65;4.68;;;435.90;1536.00;;;;;;5074475;28;20069;-67
2021/06/03 05:46:48;;;;;;;6.53;3.72;;;435.90;1536.00;;;;;;5073075;28;20478;-67
2021/06/03 05:49:14;;;;;;;7.97;4.55;;;435.90;1561.60;;;;;;5074342;28;20040;-68
2021/06/03 05:51:41;;;;;;;6.72;4.18;;;436.00;1536.00;;;;;;5073996;28;20027;-55
2021/06/03 05:54:08;;;;;;;8.73;4.25;;;436.00;1561.60;;;;;;5074996;28;20017;-55
2021/06/03 05:56:34;;;;;;;8.75;3.80;;;436.10;1536.00;;;;;;5073753;28;20103;-54
2021/06/03 05:59:00;;;;;;;7.97;4.20;;;460.80;1587.20;;;;;;5074082;28;20143;-55
2021/06/03 06:01:27;;;;;;;11.52;4.35;;;460.80;1561.60;;;;;;5074108;28;20070;-55
2021/06/03 06:06:30;;;;;;;8.43;3.90;;;460.90;1561.60;;;;;;5074030;28;20029;-54
2021/06/03 06:09:01;;;;;;;8.57;4.72;;;460.90;1561.60;;;;;;5073770;28;20028;-55
2021/06/03 06:11:30;;;;;;;10.98;4.32;;;461.10;1561.60;;;;;;5073468;28;20024;-67
2021/06/03 06:13:56;;;;;;;8.85;4.25;;;461.20;1536.00;;;;;;5073738;28;20104;-55
2021/06/03 06:16:22;;;;;;;19.83;4.97;;;461.30;1561.60;;;;;;5074149;28;20074;-55
2021/06/03 06:18:48;;;;;;;14.25;4.18;;;461.40;1536.00;;;;;;5074191;28;20416;-55
2021/06/03 06:21:20;;;;;;;12.82;4.18;;;461.50;1536.00;;;;;;5074140;28;20409;-55
2021/06/03 06:23:47;;;;;;;7.75;4.18;;;461.50;1510.40;;;;;;5074267;28;20376;-55
2021/06/03 06:26:13;;;;;;;7.05;4.10;;;461.60;1536.00;;;;;;5074539;28;20074;-55
2021/06/03 06:28:39;;;;;;;12.25;3.95;;;486.40;1484.80;;;;;;5073949;28;20087;-55
2021/06/03 06:31:07;;;;;;;9.80;3.75;;;486.50;1484.80;;;;;;5073958;28;20021;-56
2021/06/03 06:33:34;;;;;;;26.48;3.95;;;486.50;1433.60;;;;;;5072354;28;20032;-55
2021/06/03 06:36:02;;;;;;;10.82;4.32;;;486.70;1433.60;;;;;;5073532;28;20032;-55
2021/06/03 06:38:28;;;;;;;10.43;3.30;;;486.80;1433.60;;;;;;5070962;28;20466;-60
2021/06/03 06:40:54;;;;;;;8.40;3.75;;;486.90;1408.00;;;;;;5073401;28;20024;-55
2021/06/03 06:43:20;;;;;;;9.02;3.65;;;487.10;1408.00;;;;;;5073736;28;20415;-69
2021/06/03 06:45:48;;;;;;;6.13;3.95;;;487.10;1408.00;;;;;;5073198;28;20095;-55
2021/06/03 06:48:15;;;;;;;11.75;3.58;;;487.20;1408.00;;;;;;5073622;28;20519;-55
2021/06/03 06:50:44;;;;;;;8.45;3.78;;;512.00;1408.00;;;;;;5073338;28;20035;-55
2021/06/03 06:53:11;;;;;;;7.00;2.97;;;512.20;1433.60;;;;;;5073211;28;20390;-55
2021/06/03 06:55:37;;;;;;;9.30;3.13;;;512.20;1331.20;;;;;;5074220;28;20021;-55
2021/06/03 06:58:04;;;;;;;12.32;3.80;;;512.30;1356.80;;;;;;5073650;28;20048;-55
2021/06/03 07:00:33;;;;;;;12.38;4.00;;;512.40;1356.80;;;;;;5072469;28;20080;-55
2021/06/03 07:02:59;;;;;;;14.95;3.92;;;512.40;1356.80;;;;;;5073490;28;20086;-55
2021/06/03 07:05:26;;;;;;;9.35;4.05;;;512.90;1331.20;;;;;;5073609;28;20058;-55
2021/06/03 07:07:53;;;;;;;4.07;2.60;;;512.80;1536.00;;;;;;5073567;28;20044;-55
2021/06/03 07:10:19;;;;;;;5.30;3.05;;;;;;;;;;5073424;28;20071;-55
2021/06/03 07:12:45;;;;;;;13.88;3.15;;;537.60;1331.20;;;;;;5073685;28;20028;-54
2021/06/03 07:15:13;;;;;;;7.75;3.20;;;537.60;1305.60;;;;;;5074073;28;20035;-55
2021/06/03 07:17:39;;;;;;;6.72;3.20;;;537.60;1356.80;;;;;;5073386;28;20020;-55
2021/06/03 07:20:10;;;;;;;11.00;3.28;;;537.70;1305.60;;;;;;5073440;28;20029;-54
2021/06/03 07:22:40;;;;;;;10.85;2.90;;;537.80;1331.20;;;;;;5073026;28;20020;-54
2021/06/03 07:25:08;;;;;;;6.50;2.45;;;537.80;1254.40;;;;;;5072069;28;20052;-54
2021/06/03 07:27:35;;;;;;;6.00;2.72;;;537.70;1228.80;;;;;;5073329;28;20020;-55
2021/06/03 07:30:02;;;;;;;5.50;2.65;;;537.80;1280.00;;;;;;5073391;28;20032;-55
2021/06/03 07:32:31;;;;;;;6.57;3.30;;;537.90;1203.20;;;;;;5073308;28;20025;-54
2021/06/03 07:34:58;;;;;;;29.52;3.53;;;538.00;1254.40;;;;;;5073606;28;20523;-55
2021/06/03 07:37:24;;;;;;;8.75;2.97;;;538.00;1254.40;;;;;;5073258;28;20027;-54
2021/06/03 07:39:51;;;;;;;10.70;2.95;;;538.10;1228.80;;;;;;5073245;28;20029;-54
2021/06/03 07:42:17;;;;;;;7.28;2.90;;;538.10;1280.00;;;;;;5073259;28;20017;-54
2021/06/03 07:44:46;;;;;;;3.97;2.38;;;538.20;1228.80;;;;;;5073193;28;20032;-54
2021/06/03 07:47:12;;;;;;;8.18;2.90;;;538.30;1152.00;;;;;;5073486;28;20017;-54
2021/06/03 07:49:38;;;;;;;5.57;2.25;;;538.30;1203.20;;;;;;5073040;28;20469;-54
2021/06/03 07:52:04;;;;;;;8.05;2.70;;;538.30;1177.60;;;;;;5073060;28;20074;-54
2021/06/03 07:54:31;;;;;;;9.10;2.85;;;538.40;1177.60;;;;;;5073668;28;20032;-55
2021/06/03 07:56:58;;;;;;;24.20;3.20;;;538.40;1177.60;;;;;;5072792;28;20408;-54
2021/06/03 07:59:24;;;;;;;10.05;2.78;;;538.40;1152.00;;;;;;5072936;28;20055;-68
2021/06/03 08:01:51;;;;;;;9.23;3.00;;;538.40;1152.00;;;;;;5071599;28;20032;-55
2021/06/03 08:04:20;;;;;;;7.35;2.45;;;538.40;1203.20;;;;;;5072805;28;20465;-54
2021/06/03 08:06:46;;;;;;;7.80;2.10;;;538.40;1126.40;;;;;;5072814;28;20063;-68
2021/06/03 08:09:13;;;;;;;12.00;2.78;;;538.50;1152.00;;;;;;5072335;28;20074;-54
2021/06/03 08:11:39;;;;;;;6.22;2.35;;;538.50;1126.40;;;;;;5072344;28;20024;-55
2021/06/03 08:14:05;;;;;;;7.50;2.25;;;538.40;1152.00;;;;;;5072283;28;20500;-55
2021/06/03 08:16:31;;;;;;;7.75;2.60;;;538.50;1126.40;;;;;;5072145;28;20050;-56
2021/06/03 08:18:57;;;;;;;3.67;1.83;;;538.50;1100.80;;;;;;5072456;28;20366;-54
2021/06/03 08:21:24;;;;;;;9.63;2.95;;;563.20;1152.00;;;;;;5072849;28;20020;-54
2021/06/03 08:23:50;;;;;;;7.75;2.58;;;563.20;1152.00;;;;;;5073055;28;20031;-54
2021/06/03 08:26:16;;;;;;;9.68;2.92;;;563.20;1177.60;;;;;;5073330;28;20107;-54
2021/06/03 08:28:41;;;;;;;8.40;2.60;;;563.20;1177.60;;;;;;5072958;28;20075;-54
2021/06/03 08:31:08;;;;;;;8.15;2.58;;;563.30;1126.40;;;;;;5072743;28;20016;-54
2021/06/03 08:33:34;;;;;;;6.72;2.30;;;563.40;1126.40;;;;;;5072695;28;20477;-54
2021/06/03 08:36:00;;;;;;;12.45;2.65;;;563.40;1126.40;;;;;;5075625;28;20031;-54
2021/06/03 08:38:26;;;;;;;4.60;2.08;;;563.30;1126.40;;;;;;5075664;28;20017;-56
2021/06/03 08:40:58;;;;;;;7.60;2.00;;;563.30;1075.20;;;;;;5075709;28;20043;-54
2021/06/03 08:43:26;;;;;;;8.45;2.92;;;563.40;1126.40;;;;;;5075706;28;20020;-56
2021/06/03 08:45:54;;;;;;;4.88;2.67;;;563.50;1126.40;;;;;;5072942;28;20021;-67
2021/06/03 08:48:20;;;;;;;8.45;2.97;;;563.50;1152.00;;;;;;5075262;28;20500;-67
2021/06/03 08:50:53;;;;;;;5.47;2.42;;;563.50;1152.00;;;;;;5075460;28;20030;-68
2021/06/03 08:53:19;;;;;;;5.13;2.17;;;563.60;1126.40;;;;;;5071568;28;20093;-55
2021/06/03 08:58:32;;;;;;;4.47;2.20;;;563.60;1024.00;;;;;;5073465;28;20087;-60
2021/06/03 09:01:00;;;;;;;5.70;2.20;;;563.60;1024.00;;;;;;5072650;28;20085;-55
2021/06/03 09:03:28;;;;;;;6.45;2.22;;;563.50;1049.60;;;;;;5075146;28;20469;-56
2021/06/03 09:05:55;;;;;;;4.72;1.85;;;563.60;1024.00;;;;;;5075187;28;20016;-55
2021/06/03 09:08:25;;;;;;;5.18;2.20;;;563.60;1049.60;;;;;;5075039;28;20035;-66
2021/06/03 09:10:54;;;;;;;7.00;2.67;;;563.60;1075.20;;;;;;5075193;28;20021;-55
2021/06/03 09:13:30;;;;;;;7.47;2.13;;;563.70;1177.60;;;;;;5072711;28;20067;-56
2021/06/03 09:16:00;;;;;;;7.00;1.92;;;563.80;1024.00;;;;;;5075136;28;20025;-54
2021/06/03 09:18:38;;;;;;;5.55;2.17;;;563.80;1024.00;;;;;;5075508;28;20025;-54
2021/06/03 09:21:14;;;;;;;4.50;2.25;;;563.80;1075.20;;;;;;5075615;28;20382;-65
2021/06/03 09:23:43;;;;;;;18.73;3.42;;;563.80;1049.60;;;;;;5074837;28;20028;-62
2021/06/03 09:26:12;;;;;;;7.38;1.98;;;563.70;1075.20;;;;;;5074724;28;20023;-55
2021/06/03 09:28:48;;;;;;;3.83;2.17;;;563.90;1049.60;;;;;;5074347;28;20067;-55
2021/06/03 09:31:29;;;;;;;5.35;2.53;;;563.90;1049.60;;;;;;5073744;28;20027;-63
2021/06/03 09:34:21;;;;;;;4.28;2.33;;;563.90;1100.80;;;;;;5073502;28;20027;-54
2021/06/03 09:36:50;;;;;;;15.45;3.35;;;563.90;1049.60;;;;;;5075024;28;20021;-54
2021/06/03 09:39:35;;;;;;;8.95;2.83;;;563.90;1126.40;;;;;;5075338;28;20388;-54
2021/06/03 09:42:12;;;;;;;4.03;2.17;;;563.90;1024.00;;;;;;5054937;28;20113;-54
2021/06/03 09:44:56;;;;;;;11.20;2.72;;;563.90;1024.00;;;;;;5055213;28;20079;-55
2021/06/03 09:47:24;;;;;;;8.88;2.30;;;563.90;1075.20;;;;;;5054239;28;20032;-55
2021/06/03 09:49:53;;;;;;;14.10;3.00;;;564.00;1049.60;;;;;;5054758;28;20091;-55
2021/06/03 09:52:21;;;;;;;6.53;2.67;;;564.00;1126.40;;;;;;5054843;28;20036;-54
2021/06/03 09:54:55;;;;;;;7.18;2.45;;;564.00;1075.20;;;;;;5054739;28;20029;-53
2021/06/03 09:57:27;;;;;;;4.50;1.98;;;564.00;1075.20;;;;;;5054555;28;20561;-55
2021/06/03 09:59:59;;;;;;;5.50;2.45;;;564.10;1024.00;;;;;;5054717;28;20512;-56
2021/06/03 10:02:25;;;;;;;9.02;2.30;;;564.10;1075.20;;;;;;5054616;28;20032;-57
2021/06/03 10:04:53;;;;;;;6.55;2.08;;;564.10;1049.60;;;;;;5063154;28;20025;-55
2021/06/03 10:07:30;;;;;;;6.60;2.15;;;564.10;1049.60;;;;;;5074502;28;20028;-55
2021/06/03 10:10:00;;;;;;;8.20;2.40;;;564.00;1049.60;;;;;;5074995;28;20041;-68
2021/06/03 10:12:29;;;;;;;9.00;2.28;;;564.10;1075.20;;;;;;5074742;28;20096;-56
2021/06/03 10:15:04;;;;;;;8.68;2.45;;;564.10;1024.00;;;;;;5074512;28;20085;-63
2021/06/03 10:17:36;;;;;;;15.57;3.65;;;564.10;1075.20;;;;;;5074912;28;20021;-58
2021/06/03 10:20:12;;;;;;;10.48;3.08;;;588.80;1075.20;;;;;;5075108;28;20044;-57
2021/06/03 10:22:41;;;;;;;8.63;2.85;;;588.80;1075.20;;;;;;5074337;28;20099;-58
2021/06/03 10:25:09;;;;;;;6.75;3.28;;;588.80;1075.20;;;;;;5074151;28;20016;-55
2021/06/03 10:27:38;;;;;;;4.30;2.30;;;588.90;1100.80;;;;;;5073794;28;20508;-55
2021/06/03 10:30:11;;;;;;;6.90;2.95;;;588.90;1075.20;;;;;;5074299;28;20040;-61
2021/06/03 10:32:37;;;;;;;8.10;2.50;;;588.90;1049.60;;;;;;5073802;28;20529;-56
2021/06/03 10:35:07;;;;;;;5.82;2.45;;;588.90;1024.00;;;;;;5073161;28;20063;-55
2021/06/03 10:37:34;;;;;;;7.45;2.50;;;589.00;1024.00;;;;;;5073182;28;20028;-66
2021/06/03 10:40:00;;;;;;;7.88;2.40;;;589.00;998.40;;;;;;5074009;28;20036;-66
2021/06/03 10:42:25;;;;;;;5.35;2.90;;;589.00;1024.00;;;;;;5073473;28;20028;-64
2021/06/03 10:44:52;;;;;;;10.93;3.53;;;589.00;1049.60;;;;;;5071835;28;20027;-56
2021/06/03 10:47:19;;;;;;;13.23;2.67;;;589.20;1075.20;;;;;;5072055;28;20035;-68
2021/06/03 10:49:46;;;;;;;6.50;2.45;;;589.20;1049.60;;;;;;5071907;28;20033;-56
2021/06/03 10:52:13;;;;;;;5.38;2.50;;;589.20;1024.00;;;;;;5072716;28;20023;-56
2021/06/03 10:54:52;;;;;;;6.32;2.50;;;589.20;1075.20;;;;;;5073168;28;20113;-55
2021/06/03 10:57:21;;;;;;;11.45;8.60;;;589.20;998.40;;;;;;5070411;28;20067;-56
2021/06/03 10:59:48;;;;;;;7.43;2.92;;;589.30;1100.80;;;;;;5072915;28;20104;-56
2021/06/03 11:02:15;;;;;;;7.68;3.55;;;589.20;1075.20;;;;;;5072962;28;20478;-55
2021/06/03 11:04:42;;;;;;;5.85;2.75;;;589.10;1075.20;;;;;;5072926;28;20024;-66
2021/06/03 11:07:09;;;;;;;7.22;2.42;;;589.10;1049.60;;;;;;5073158;28;20433;-65
2021/06/03 11:09:38;;;;;;;7.97;2.63;;;589.00;1049.60;;;;;;5073081;28;20131;-58
2021/06/03 11:12:16;;;;;;;4.60;2.00;;;589.00;1024.00;;;;;;5072979;28;20016;-58
2021/06/03 11:15:03;;;;;;;10.63;2.33;;;589.20;1049.60;;;;;;5073240;28;20030;-62
2021/06/03 11:17:48;;;;;;;5.20;2.05;;;589.30;1049.60;;;;;;5073395;28;20048;-66
2021/06/03 11:20:15;;;;;;;8.52;2.58;;;589.20;1024.00;;;;;;5073520;28;20048;-55
2021/06/03 11:22:40;;;;;;;6.90;2.60;;;589.10;1049.60;;;;;;5073087;28;20366;-56
2021/06/03 11:25:06;;;;;;;7.75;2.72;;;589.20;1049.60;;;;;;5073158;28;20040;-55
2021/06/03 11:27:38;;;;;;;11.55;2.40;;;589.30;1024.00;;;;;;5073224;28;20505;-57
2021/06/03 11:30:10;;;;;;;5.97;2.28;;;589.30;1024.00;;;;;;5072999;28;20042;-55
2021/06/03 11:32:39;;;;;;;9.40;2.20;;;589.30;1024.00;;;;;;5073257;28;20016;-55
2021/06/03 11:35:12;;;;;;;7.25;2.20;;;589.40;998.40;;;;;;5072991;28;20511;-57
2021/06/03 11:37:41;;;;;;;7.18;2.58;;;589.40;998.40;;;;;;5072833;28;20035;-57
2021/06/03 11:40:10;;;;;;;4.32;2.20;;;589.50;998.40;;;;;;5072819;28;20493;-56
2021/06/03 11:42:50;;;;;;;10.82;2.30;;;589.60;1024.00;;;;;;5072353;28;20054;-64
2021/06/03 11:45:26;;;;;;;6.32;2.60;;;589.70;1049.60;;;;;;5072697;28;20094;-56
2021/06/03 11:47:53;;;;;;;5.00;2.22;;;614.40;1049.60;;;;;;5072696;28;20039;-56
2021/06/03 11:50:19;;;;;;;11.88;2.60;;;614.50;998.40;;;;;;5072674;28;20036;-56
2021/06/03 11:53:15;;;;;;;8.05;2.63;;;614.40;972.80;;;;;;5072458;28;20029;-55
2021/06/03 11:55:49;;;;;;;8.23;2.55;;;614.60;998.40;;;;;;5069819;28;20082;-56
2021/06/03 11:58:38;;;;;;;16.80;3.05;;;614.60;947.20;;;;;;5072772;28;20416;-58
2021/06/03 12:01:06;;;;;;;12.80;2.58;;;614.60;998.40;;;;;;5072697;28;20029;-58
2021/06/03 12:03:41;;;;;;;9.48;2.58;;;614.50;998.40;;;;;;5072847;28;20392;-57
2021/06/03 12:06:13;;;;;;;8.57;2.70;;;614.40;1024.00;;;;;;5071506;28;20485;-57
2021/06/03 12:08:47;;;;;;;7.18;2.60;;;589.60;1024.00;;;;;;5071735;28;20112;-57
2021/06/03 12:11:44;;;;;;;9.95;2.13;;;589.60;998.40;;;;;;5074865;28;20037;-56
2021/06/03 12:14:11;;;;;;;11.05;2.75;;;589.60;998.40;;;;;;5075634;28;20586;-56
2021/06/03 12:16:41;;;;;;;8.55;2.67;;;614.40;1024.00;;;;;;5075119;28;20028;-57
2021/06/03 12:19:12;;;;;;;9.30;2.50;;;614.40;998.40;;;;;;5075391;28;20031;-57
2021/06/03 12:21:39;;;;;;;8.43;2.67;;;614.50;972.80;;;;;;5075997;28;20531;-56
2021/06/03 12:24:06;;;;;;;8.38;2.50;;;614.60;998.40;;;;;;5075105;28;20027;-56
2021/06/03 12:26:36;;;;;;;6.75;2.20;;;614.70;1024.00;;;;;;5075583;28;20447;-56
2021/06/03 12:29:02;;;;;;;8.25;2.17;;;614.60;947.20;;;;;;5075581;28;20485;-56